createdAt,value
2023-05-14T00:01:27.102Z,55.70
2023-05-14T00:04:19.625Z,55.79
2023-05-14T00:07:11.685Z,56.03
2023-05-14T00:10:03.729Z,56.04
2023-05-14T00:12:55.772Z,56.16
2023-05-14T00:15:47.734Z,56.17
2023-05-14T00:18:39.950Z,56.20
2023-05-14T00:21:32.297Z,56.15
2023-05-14T00:24:24.791Z,56.33
2023-05-14T00:27:07.658Z,56.46
2023-05-14T00:29:59.592Z,56.48
2023-05-14T00:32:51.636Z,56.59
2023-05-14T00:35:43.655Z,56.76
2023-05-14T00:38:35.584Z,56.83
2023-05-14T00:41:27.672Z,56.95
2023-05-14T00:44:19.627Z,57.04
2023-05-14T00:47:11.670Z,57.14
2023-05-14T00:50:04.472Z,57.25
2023-05-14T00:52:39.678Z,57.39
2023-05-14T00:55:32.778Z,57.41
2023-05-14T00:58:25.754Z,57.52
2023-05-14T01:01:18.163Z,57.68
2023-05-14T01:04:11.795Z,57.77
2023-05-14T01:07:15.482Z,57.71
2023-05-14T01:10:14.712Z,57.78
2023-05-14T01:13:14.427Z,57.85
2023-05-14T01:16:09.165Z,57.92
2023-05-14T01:19:03.679Z,58.09
2023-05-14T01:21:55.685Z,58.05
2023-05-14T01:24:47.717Z,58.03
2023-05-14T01:27:43.828Z,58.16
2023-05-14T01:30:38.944Z,58.21
2023-05-14T01:33:34.539Z,58.29
2023-05-14T01:36:27.612Z,58.34
2023-05-14T01:39:20.552Z,58.54
2023-05-14T01:42:13.268Z,58.58
2023-05-14T01:45:06.306Z,58.71
2023-05-14T01:47:58.732Z,58.71
2023-05-14T01:50:50.880Z,58.77
2023-05-14T01:53:43.043Z,58.73
2023-05-14T01:56:35.100Z,58.91
2023-05-14T01:59:27.455Z,58.98
2023-05-14T02:02:19.478Z,58.99
2023-05-14T02:05:13.447Z,59.09
2023-05-14T02:08:05.752Z,59.23
2023-05-14T02:10:57.675Z,59.31
2023-05-14T02:13:49.613Z,59.35
2023-05-14T02:16:41.671Z,59.56
2023-05-14T02:19:33.719Z,59.57
2023-05-14T02:22:25.731Z,59.44
2023-05-14T02:25:17.710Z,59.47
2023-05-14T02:28:09.742Z,59.50
2023-05-14T02:31:02.797Z,59.52
2023-05-14T02:33:54.881Z,59.47
2023-05-14T02:36:47.320Z,59.68
2023-05-14T02:39:39.384Z,59.77
2023-05-14T02:42:31.368Z,59.69
2023-05-14T02:45:23.420Z,59.53
2023-05-14T02:48:15.383Z,59.47
2023-05-14T02:51:08.667Z,59.38
2023-05-14T02:54:00.609Z,59.34
2023-05-14T02:56:52.588Z,59.19
2023-05-14T02:59:44.625Z,59.17
2023-05-14T03:02:36.883Z,59.24
2023-05-14T03:05:29.365Z,59.29
2023-05-14T03:08:21.489Z,59.33
2023-05-14T03:11:13.516Z,59.41
2023-05-14T03:14:05.585Z,59.46
2023-05-14T03:16:57.611Z,59.52
2023-05-14T03:19:49.695Z,59.71
2023-05-14T03:22:41.600Z,59.67
2023-05-14T03:25:34.355Z,59.73
2023-05-14T03:28:26.389Z,59.86
2023-05-14T03:31:18.403Z,59.99
2023-05-14T03:34:10.389Z,60.09
2023-05-14T03:37:02.421Z,60.14
2023-05-14T03:39:54.402Z,60.24
2023-05-14T03:42:46.338Z,60.31
2023-05-14T03:45:38.432Z,60.42
2023-05-14T03:48:30.462Z,60.63
2023-05-14T03:51:23.000Z,60.73
2023-05-14T03:54:15.031Z,60.88
2023-05-14T03:57:07.624Z,60.98
2023-05-14T03:59:59.617Z,61.17
2023-05-14T04:02:51.750Z,61.34
2023-05-14T04:05:43.903Z,61.38
2023-05-14T04:08:35.838Z,61.43
2023-05-14T04:11:27.921Z,61.40
2023-05-14T04:14:19.951Z,61.48
2023-05-14T04:17:11.963Z,61.64
2023-05-14T04:20:04.377Z,61.66
2023-05-14T04:22:56.569Z,61.77
2023-05-14T04:25:31.414Z,61.70
2023-05-14T04:28:23.401Z,61.76
2023-05-14T04:31:16.551Z,61.83
2023-05-14T04:34:08.488Z,61.89
2023-05-14T04:37:00.591Z,61.88
2023-05-14T04:39:52.576Z,61.78
2023-05-14T04:42:44.798Z,61.83
2023-05-14T04:45:36.796Z,61.88
2023-05-14T04:48:19.095Z,62.01
2023-05-14T04:51:11.040Z,62.02
2023-05-14T04:54:02.997Z,62.14
2023-05-14T04:56:56.763Z,62.06
2023-05-14T04:59:48.754Z,61.84
2023-05-14T05:02:40.864Z,61.67
2023-05-14T05:05:32.826Z,61.85
2023-05-14T05:08:24.842Z,61.84
2023-05-14T05:11:16.901Z,61.81
2023-05-14T05:14:08.891Z,61.69
2023-05-14T05:17:00.853Z,61.49
2023-05-14T05:19:52.835Z,61.22
2023-05-14T05:22:44.804Z,61.10
2023-05-14T05:25:36.793Z,61.06
2023-05-14T05:28:28.808Z,60.93
2023-05-14T05:31:20.892Z,59.88
2023-05-14T05:34:12.926Z,59.70
2023-05-14T05:37:06.062Z,59.95
2023-05-14T05:39:58.039Z,59.22
2023-05-14T05:42:50.002Z,58.48
2023-05-14T05:45:42.031Z,58.29
2023-05-14T05:48:34.066Z,57.09
2023-05-14T05:51:08.827Z,56.64
2023-05-14T05:54:00.917Z,56.06
2023-05-14T05:56:52.918Z,55.69
2023-05-14T05:59:45.034Z,54.43
2023-05-14T06:02:37.147Z,54.10
2023-05-14T06:05:29.204Z,53.38
2023-05-14T06:08:21.254Z,52.55
2023-05-14T06:11:13.273Z,51.91
2023-05-14T06:14:05.663Z,50.99
2023-05-14T06:16:58.687Z,50.34
2023-05-14T06:19:50.656Z,49.46
2023-05-14T06:22:42.901Z,49.04
2023-05-14T06:25:34.930Z,48.51
2023-05-14T06:28:16.649Z,47.91
2023-05-14T06:31:08.667Z,47.71
2023-05-14T06:34:00.689Z,47.27
2023-05-14T06:36:52.678Z,46.52
2023-05-14T06:39:50.926Z,46.47
2023-05-14T06:42:28.040Z,45.76
2023-05-14T06:45:20.203Z,45.75
2023-05-14T06:48:13.336Z,44.75
2023-05-14T06:51:05.449Z,44.98
2023-05-14T06:53:37.611Z,44.30
2023-05-14T06:56:29.926Z,43.94
2023-05-14T06:59:06.876Z,44.30
2023-05-14T07:01:46.142Z,44.28
2023-05-14T07:04:38.286Z,43.78
2023-05-14T07:07:30.265Z,43.94
2023-05-14T07:10:22.764Z,44.11
2023-05-14T07:13:14.967Z,43.74
2023-05-14T07:15:49.885Z,44.28
2023-05-14T07:18:41.865Z,44.23
2023-05-14T07:21:33.800Z,44.38
2023-05-14T07:24:25.906Z,44.48
2023-05-14T07:27:17.986Z,44.39
2023-05-14T07:30:11.407Z,44.08
2023-05-14T07:33:03.552Z,43.77
2023-05-14T07:35:55.959Z,44.01
2023-05-14T07:38:47.982Z,44.05
2023-05-14T07:41:39.993Z,44.30
2023-05-14T07:44:31.975Z,44.57
2023-05-14T07:47:24.107Z,44.06
2023-05-14T07:50:16.529Z,43.82
2023-05-14T07:53:08.684Z,43.81
2023-05-14T07:56:01.008Z,43.40
2023-05-14T07:58:53.062Z,43.70
2023-05-14T08:01:35.686Z,43.49
2023-05-14T08:04:28.866Z,43.50
2023-05-14T08:07:21.589Z,43.50
2023-05-14T08:10:13.829Z,43.37
2023-05-14T08:13:05.909Z,43.55
2023-05-14T08:15:57.962Z,43.59
2023-05-14T08:18:50.104Z,43.29
2023-05-14T08:21:42.219Z,43.17
2023-05-14T08:24:34.761Z,43.22
2023-05-14T08:27:26.865Z,42.85
2023-05-14T08:30:19.390Z,42.01
2023-05-14T08:33:11.411Z,42.15
2023-05-14T08:36:03.887Z,42.11
2023-05-14T08:38:56.046Z,41.72
2023-05-14T08:41:48.057Z,42.02
2023-05-14T08:44:48.733Z,41.47
2023-05-14T08:47:40.755Z,41.61
2023-05-14T08:50:33.267Z,41.17
2023-05-14T08:53:25.417Z,40.79
2023-05-14T08:56:20.208Z,40.77
2023-05-14T08:59:12.405Z,40.98
2023-05-14T09:02:06.701Z,40.73
2023-05-14T09:05:00.893Z,40.84
2023-05-14T09:07:52.969Z,40.89
2023-05-14T09:10:45.013Z,40.46
2023-05-14T09:13:39.317Z,39.97
2023-05-14T09:16:31.533Z,39.27
2023-05-14T09:19:23.814Z,39.14
2023-05-14T09:22:17.638Z,39.67
2023-05-14T09:25:12.460Z,39.01
2023-05-14T09:27:55.648Z,39.08
2023-05-14T09:30:53.036Z,38.59
2023-05-14T09:33:56.126Z,38.78
2023-05-14T09:36:48.096Z,38.62
2023-05-14T09:39:41.179Z,38.80
2023-05-14T09:42:33.800Z,38.38
2023-05-14T09:45:26.276Z,38.04
2023-05-14T09:48:18.468Z,37.68
2023-05-14T09:51:12.505Z,37.56
2023-05-14T09:54:05.965Z,37.61
2023-05-14T09:56:58.002Z,37.73
2023-05-14T09:59:50.215Z,37.90
2023-05-14T10:02:37.957Z,37.58
2023-05-14T10:05:30.812Z,37.16
2023-05-14T10:08:28.815Z,37.02
2023-05-14T10:11:25.213Z,36.39
2023-05-14T10:14:25.778Z,36.69
2023-05-14T10:17:20.798Z,36.68
2023-05-14T10:20:15.214Z,36.38
2023-05-14T10:23:08.576Z,35.88
2023-05-14T10:26:01.457Z,35.52
2023-05-14T10:28:53.906Z,35.56
2023-05-14T10:31:50.622Z,35.82
2023-05-14T10:34:44.483Z,35.56
2023-05-14T10:37:36.792Z,35.25
2023-05-14T10:40:29.143Z,34.92
2023-05-14T10:43:22.416Z,35.30
2023-05-14T10:46:15.734Z,35.52
2023-05-14T10:49:08.166Z,35.32
2023-05-14T10:52:00.387Z,34.56
2023-05-14T10:54:56.693Z,34.33
2023-05-14T10:57:48.983Z,33.97
2023-05-14T11:00:41.878Z,33.92
2023-05-14T11:03:39.607Z,33.96
2023-05-14T11:06:32.201Z,34.45
2023-05-14T11:09:25.036Z,34.22
2023-05-14T11:12:17.682Z,34.47
2023-05-14T11:15:12.503Z,34.72
2023-05-14T11:18:04.623Z,34.34
2023-05-14T11:20:59.060Z,34.21
2023-05-14T11:23:51.400Z,33.83
2023-05-14T11:26:43.457Z,33.83
2023-05-14T11:29:35.475Z,33.66
2023-05-14T11:32:28.525Z,34.04
2023-05-14T11:35:20.948Z,34.09
2023-05-14T11:38:18.332Z,33.61
2023-05-14T11:41:10.387Z,33.59
2023-05-14T11:44:02.601Z,33.66
2023-05-14T11:47:01.377Z,33.93
2023-05-14T11:49:53.832Z,34.02
2023-05-14T11:52:48.006Z,34.47
2023-05-14T11:55:38.590Z,33.98
2023-05-14T11:58:33.188Z,33.78
2023-05-14T12:01:25.428Z,33.92
2023-05-14T12:04:19.694Z,34.15
2023-05-14T12:07:12.928Z,34.55
2023-05-14T12:10:06.254Z,34.16
2023-05-14T12:12:58.365Z,34.08
2023-05-14T12:15:55.308Z,34.16
2023-05-14T12:18:47.535Z,34.60
2023-05-14T12:21:40.642Z,34.45
2023-05-14T12:24:33.163Z,34.65
2023-05-14T12:27:26.554Z,34.88
2023-05-14T12:30:21.959Z,34.54
2023-05-14T12:33:14.828Z,34.34
2023-05-14T12:36:20.673Z,33.99
2023-05-14T12:39:14.447Z,34.05
2023-05-14T12:42:06.713Z,34.11
2023-05-14T12:44:59.608Z,33.97
2023-05-14T12:47:52.244Z,34.28
2023-05-14T12:50:44.255Z,34.53
2023-05-14T12:53:36.558Z,34.11
2023-05-14T12:56:30.861Z,34.32
2023-05-14T12:59:22.902Z,34.53
2023-05-14T13:02:17.277Z,34.89
2023-05-14T13:05:10.714Z,34.72
2023-05-14T13:08:03.976Z,34.49
2023-05-14T13:10:56.955Z,34.46
2023-05-14T13:13:48.995Z,34.60
2023-05-14T13:16:41.110Z,34.79
2023-05-14T13:19:33.151Z,34.64
2023-05-14T13:22:25.232Z,34.58
2023-05-14T13:25:17.555Z,34.91
2023-05-14T13:28:09.673Z,34.81
2023-05-14T13:31:09.824Z,35.00
2023-05-14T13:34:02.591Z,35.31
2023-05-14T13:36:54.619Z,35.04
2023-05-14T13:39:46.609Z,35.09
2023-05-14T13:42:39.778Z,34.96
2023-05-14T13:45:31.815Z,35.01
2023-05-14T13:48:23.975Z,35.12
2023-05-14T13:51:16.122Z,35.50
2023-05-14T13:54:08.421Z,35.81
2023-05-14T13:57:00.482Z,35.96
2023-05-14T13:59:52.498Z,36.04
2023-05-14T14:02:44.566Z,35.97
2023-05-14T14:05:37.484Z,36.05
2023-05-14T14:08:29.600Z,36.15
2023-05-14T14:11:21.872Z,36.12
2023-05-14T14:14:13.913Z,36.37
2023-05-14T14:17:06.218Z,36.46
2023-05-14T14:19:58.355Z,36.64
2023-05-14T14:22:50.395Z,36.88
2023-05-14T14:25:42.434Z,36.83
2023-05-14T14:28:35.339Z,36.98
2023-05-14T14:31:27.466Z,37.23
2023-05-14T14:34:19.694Z,37.25
2023-05-14T14:37:11.732Z,37.43
2023-05-14T14:40:07.174Z,37.62
2023-05-14T14:42:59.264Z,37.65
2023-05-14T14:45:51.472Z,37.56
2023-05-14T14:48:44.003Z,37.78
2023-05-14T14:51:24.897Z,38.14
2023-05-14T14:54:16.867Z,38.28
2023-05-14T14:57:09.061Z,38.12
2023-05-14T15:00:02.541Z,38.24
2023-05-14T15:02:54.907Z,38.17
2023-05-14T15:05:47.153Z,38.26
2023-05-14T15:08:39.218Z,37.96
2023-05-14T15:11:31.236Z,38.07
2023-05-14T15:14:23.229Z,38.10
2023-05-14T15:17:15.179Z,38.35
2023-05-14T15:20:11.725Z,38.52
2023-05-14T15:23:03.823Z,38.39
2023-05-14T15:25:55.846Z,38.06
2023-05-14T15:28:47.750Z,38.00
2023-05-14T15:31:39.782Z,38.26
2023-05-14T15:34:31.975Z,38.19
2023-05-14T15:37:24.644Z,38.18
2023-05-14T15:40:16.930Z,38.27
2023-05-14T15:43:08.984Z,38.07
2023-05-14T15:46:01.027Z,37.81
2023-05-14T15:48:53.048Z,37.74
2023-05-14T15:51:45.159Z,37.80
2023-05-14T15:54:28.342Z,37.94
2023-05-14T15:57:20.409Z,38.05
2023-05-14T16:00:14.399Z,38.38
2023-05-14T16:02:52.264Z,38.71
2023-05-14T16:05:44.796Z,38.73
2023-05-14T16:08:36.806Z,38.86
2023-05-14T16:11:28.912Z,38.98
2023-05-14T16:14:20.966Z,39.13
2023-05-14T16:17:13.130Z,39.32
2023-05-14T16:20:05.774Z,39.55
2023-05-14T16:22:57.945Z,39.73
2023-05-14T16:25:50.092Z,39.81
2023-05-14T16:28:22.062Z,39.73
2023-05-14T16:31:15.318Z,39.89
2023-05-14T16:34:07.333Z,39.94
2023-05-14T16:36:59.959Z,39.94
2023-05-14T16:39:51.950Z,39.97
2023-05-14T16:42:26.499Z,40.12
2023-05-14T16:45:18.911Z,40.02
2023-05-14T16:48:11.127Z,40.21
2023-05-14T16:51:03.171Z,40.33
2023-05-14T16:53:55.646Z,40.23
2023-05-14T16:56:48.201Z,40.35
2023-05-14T16:59:28.254Z,40.58
2023-05-14T17:02:20.277Z,40.75
2023-05-14T17:05:12.734Z,40.79
2023-05-14T17:08:05.208Z,40.76
2023-05-14T17:10:57.187Z,40.86
2023-05-14T17:14:02.953Z,41.02
2023-05-14T17:16:40.530Z,41.12
2023-05-14T17:19:32.635Z,41.08
2023-05-14T17:22:07.679Z,41.08
2023-05-14T17:24:59.672Z,41.09
2023-05-14T17:27:51.692Z,41.18
2023-05-14T17:30:43.918Z,41.33
2023-05-14T17:33:36.072Z,41.41
2023-05-14T17:36:28.611Z,41.47
2023-05-14T17:39:20.664Z,41.41
2023-05-14T17:42:12.666Z,41.52
2023-05-14T17:45:04.845Z,41.65
2023-05-14T17:47:56.861Z,41.66
2023-05-14T17:50:31.276Z,41.67
2023-05-14T17:53:23.295Z,41.79
2023-05-14T17:56:17.128Z,41.73
2023-05-14T17:58:51.807Z,41.71
2023-05-14T18:01:28.968Z,41.89
2023-05-14T18:04:12.244Z,42.18
2023-05-14T18:07:04.392Z,42.47
2023-05-14T18:09:56.383Z,42.74
2023-05-14T18:12:48.502Z,44.09
2023-05-14T18:15:40.510Z,45.44
2023-05-14T18:18:33.119Z,46.79
2023-05-14T18:21:25.261Z,48.70
2023-05-14T18:24:17.282Z,49.60
2023-05-14T18:27:09.468Z,50.20
2023-05-14T18:29:46.737Z,50.68
2023-05-14T18:36:15.361Z,51.02
2023-05-14T18:39:07.418Z,51.68
2023-05-14T18:41:59.390Z,52.23
2023-05-14T18:44:51.375Z,52.95
2023-05-14T18:47:43.609Z,53.82
2023-05-14T18:50:37.402Z,54.37
2023-05-14T18:53:31.407Z,55.01
2023-05-14T18:56:23.380Z,55.57
2023-05-14T18:59:15.523Z,56.04
2023-05-14T19:02:07.845Z,55.90
2023-05-14T19:04:59.851Z,56.44
2023-05-14T19:07:51.858Z,57.11
2023-05-14T19:10:43.933Z,57.57
2023-05-14T19:13:35.866Z,57.85
2023-05-14T19:16:28.052Z,58.37
2023-05-14T19:19:20.122Z,58.72
2023-05-14T19:22:12.146Z,59.17
2023-05-14T19:25:05.220Z,59.48
2023-05-14T19:28:01.487Z,59.60
2023-05-14T19:30:53.635Z,59.80
2023-05-14T19:33:45.958Z,59.91
2023-05-14T19:36:37.906Z,60.10
2023-05-14T19:39:28.622Z,60.17
2023-05-14T19:42:21.164Z,60.38
2023-05-14T19:45:14.008Z,60.54
2023-05-14T19:48:07.567Z,60.87
2023-05-14T19:50:59.653Z,61.08
2023-05-14T19:53:34.423Z,61.21
2023-05-14T19:56:27.392Z,61.09
2023-05-14T19:59:19.447Z,61.27
2023-05-14T20:02:17.873Z,61.46
2023-05-14T20:05:11.251Z,61.75
2023-05-14T20:08:06.496Z,61.83
2023-05-14T20:10:58.482Z,61.96
2023-05-14T20:13:50.473Z,62.13
2023-05-14T20:16:42.683Z,62.19
2023-05-14T20:19:34.685Z,62.50
2023-05-14T20:22:26.688Z,62.51
2023-05-14T20:25:18.754Z,62.56
2023-05-14T20:28:10.770Z,62.89
2023-05-14T20:31:04.022Z,63.02
2023-05-14T20:33:56.078Z,63.34
2023-05-14T20:36:48.449Z,63.26
2023-05-14T20:39:40.540Z,63.51
2023-05-14T20:42:32.545Z,63.79
2023-05-14T20:45:24.734Z,64.00
2023-05-14T20:48:17.615Z,64.14
2023-05-14T20:51:09.644Z,64.43
2023-05-14T20:54:02.503Z,64.43
2023-05-14T20:56:54.494Z,64.67
2023-05-14T20:59:46.610Z,64.66
2023-05-14T21:02:38.853Z,64.78
2023-05-14T21:05:30.991Z,64.89
2023-05-14T21:08:22.984Z,64.97
2023-05-14T21:11:15.267Z,64.67
2023-05-14T21:14:07.256Z,64.73
2023-05-14T21:16:59.236Z,64.75
2023-05-14T21:19:51.209Z,64.85
2023-05-14T21:22:43.266Z,65.19
2023-05-14T21:25:35.485Z,65.21
2023-05-14T21:28:27.557Z,65.07
2023-05-14T21:31:19.562Z,65.18
2023-05-14T21:34:11.551Z,65.29
2023-05-14T21:37:03.647Z,65.53
2023-05-14T21:39:55.756Z,65.67
2023-05-14T21:42:47.828Z,65.80
2023-05-14T21:45:39.875Z,65.69
2023-05-14T21:48:32.002Z,65.75
2023-05-14T21:51:24.116Z,65.85
2023-05-14T21:54:16.371Z,65.81
2023-05-14T21:57:08.887Z,66.09
2023-05-14T22:00:00.958Z,66.29
2023-05-14T22:02:53.663Z,66.21
2023-05-14T22:05:45.820Z,66.29
2023-05-14T22:08:37.867Z,66.26
2023-05-14T22:11:29.959Z,66.28
2023-05-14T22:14:22.093Z,65.96
2023-05-14T22:17:14.678Z,66.12
2023-05-14T22:20:09.232Z,66.21
2023-05-14T22:23:01.297Z,66.25
2023-05-14T22:25:53.327Z,66.34
2023-05-14T22:28:45.545Z,66.61
2023-05-14T22:31:37.832Z,66.48
2023-05-14T22:34:30.087Z,66.20
2023-05-14T22:37:22.290Z,66.13
2023-05-14T22:40:15.631Z,66.11
2023-05-14T22:43:07.756Z,66.04
2023-05-14T22:45:59.982Z,65.96
2023-05-14T22:48:52.075Z,65.89
2023-05-14T22:51:44.080Z,65.73
2023-05-14T22:54:36.318Z,65.94
2023-05-14T22:57:28.845Z,65.78
2023-05-14T23:00:21.161Z,66.09
2023-05-14T23:03:13.336Z,65.90
2023-05-14T23:06:05.646Z,65.83
2023-05-14T23:08:57.779Z,66.16
2023-05-14T23:11:49.836Z,66.33
2023-05-14T23:14:42.531Z,66.06
2023-05-14T23:17:34.888Z,66.29
2023-05-14T23:20:26.969Z,66.30
2023-05-14T23:23:19.201Z,66.45
2023-05-14T23:26:11.241Z,66.62
2023-05-14T23:29:03.298Z,66.75
2023-05-14T23:31:55.481Z,66.55
2023-05-14T23:34:47.482Z,66.67
2023-05-14T23:37:42.940Z,67.12
2023-05-14T23:40:35.391Z,67.37
2023-05-14T23:43:27.487Z,67.68
2023-05-14T23:46:19.654Z,67.50
2023-05-14T23:49:11.880Z,67.48
2023-05-14T23:52:03.943Z,67.59
2023-05-14T23:54:55.984Z,67.98
2023-05-14T23:57:48.469Z,68.00
